sensor_id;sensor_type;location;lat;lon;timestamp;P1;durP1;ratioP1;P2;durP2;ratioP2
71606;SDS011;60641;53.556;9.914;2023-08-20T00:01:12;11.10;;;4.40;;
71606;SDS011;60641;53.556;9.914;2023-08-20T00:03:49;10.70;;;3.50;;
71606;SDS011;60641;53.556;9.914;2023-08-20T00:06:16;10.10;;;3.70;;
71606;SDS011;60641;53.556;9.914;2023-08-20T00:08:43;13.30;;;4.20;;
71606;SDS011;60641;53.556;9.914;2023-08-20T00:11:11;14.10;;;4.30;;
71606;SDS011;60641;53.556;9.914;2023-08-20T00:13:38;11.80;;;3.80;;
71606;SDS011;60641;53.556;9.914;2023-08-20T00:16:05;10.40;;;3.30;;
71606;SDS011;60641;53.556;9.914;2023-08-20T00:18:32;16.50;;;3.50;;
71606;SDS011;60641;53.556;9.914;2023-08-20T00:20:58;10.40;;;4.10;;
71606;SDS011;60641;53.556;9.914;2023-08-20T00:23:26;12.50;;;3.90;;
71606;SDS011;60641;53.556;9.914;2023-08-20T00:25:53;12.30;;;3.50;;
71606;SDS011;60641;53.556;9.914;2023-08-20T00:28:20;10.00;;;3.70;;
71606;SDS011;60641;53.556;9.914;2023-08-20T00:30:46;11.90;;;3.60;;
71606;SDS011;60641;53.556;9.914;2023-08-20T00:33:13;14.30;;;4.30;;
71606;SDS011;60641;53.556;9.914;2023-08-20T00:35:40;12.40;;;3.90;;
71606;SDS011;60641;53.556;9.914;2023-08-20T00:38:06;10.10;;;3.80;;
71606;SDS011;60641;53.556;9.914;2023-08-20T00:40:33;13.50;;;3.70;;
71606;SDS011;60641;53.556;9.914;2023-08-20T00:42:59;12.30;;;4.00;;
71606;SDS011;60641;53.556;9.914;2023-08-20T00:45:26;12.10;;;3.90;;
71606;SDS011;60641;53.556;9.914;2023-08-20T00:47:52;10.70;;;4.20;;
71606;SDS011;60641;53.556;9.914;2023-08-20T00:50:19;12.00;;;3.70;;
71606;SDS011;60641;53.556;9.914;2023-08-20T00:52:45;12.60;;;4.20;;
71606;SDS011;60641;53.556;9.914;2023-08-20T00:55:12;12.30;;;4.30;;
71606;SDS011;60641;53.556;9.914;2023-08-20T00:57:39;13.90;;;3.80;;
71606;SDS011;60641;53.556;9.914;2023-08-20T01:00:07;12.90;;;4.00;;
71606;SDS011;60641;53.556;9.914;2023-08-20T01:02:35;12.90;;;4.30;;
71606;SDS011;60641;53.556;9.914;2023-08-20T01:05:05;10.80;;;4.20;;
71606;SDS011;60641;53.556;9.914;2023-08-20T01:10:26;12.10;;;3.70;;
71606;SDS011;60641;53.556;9.914;2023-08-20T01:13:00;12.30;;;4.20;;
71606;SDS011;60641;53.556;9.914;2023-08-20T01:15:26;13.70;;;3.90;;
71606;SDS011;60641;53.556;9.914;2023-08-20T01:17:53;10.90;;;4.20;;
71606;SDS011;60641;53.556;9.914;2023-08-20T01:20:19;11.90;;;4.20;;
71606;SDS011;60641;53.556;9.914;2023-08-20T01:28:30;16.20;;;4.50;;
71606;SDS011;60641;53.556;9.914;2023-08-20T01:30:58;16.00;;;4.90;;
71606;SDS011;60641;53.556;9.914;2023-08-20T01:33:25;13.40;;;4.20;;
71606;SDS011;60641;53.556;9.914;2023-08-20T01:35:52;12.50;;;4.10;;
71606;SDS011;60641;53.556;9.914;2023-08-20T01:38:19;12.90;;;4.20;;
71606;SDS011;60641;53.556;9.914;2023-08-20T01:40:46;13.00;;;4.30;;
71606;SDS011;60641;53.556;9.914;2023-08-20T01:43:13;12.30;;;3.80;;
71606;SDS011;60641;53.556;9.914;2023-08-20T01:45:40;14.50;;;4.20;;
71606;SDS011;60641;53.556;9.914;2023-08-20T01:48:06;12.50;;;4.40;;
71606;SDS011;60641;53.556;9.914;2023-08-20T01:50:33;13.70;;;4.50;;
71606;SDS011;60641;53.556;9.914;2023-08-20T01:53:01;13.60;;;4.60;;
71606;SDS011;60641;53.556;9.914;2023-08-20T01:55:29;14.20;;;3.70;;
71606;SDS011;60641;53.556;9.914;2023-08-20T01:57:55;10.90;;;4.40;;
71606;SDS011;60641;53.556;9.914;2023-08-20T02:00:22;12.00;;;4.20;;
71606;SDS011;60641;53.556;9.914;2023-08-20T02:02:48;13.10;;;5.40;;
71606;SDS011;60641;53.556;9.914;2023-08-20T02:05:14;13.80;;;5.40;;
71606;SDS011;60641;53.556;9.914;2023-08-20T02:07:41;13.20;;;5.10;;
71606;SDS011;60641;53.556;9.914;2023-08-20T02:10:07;20.20;;;5.60;;
71606;SDS011;60641;53.556;9.914;2023-08-20T02:12:35;16.60;;;6.30;;
71606;SDS011;60641;53.556;9.914;2023-08-20T02:15:01;14.40;;;5.70;;
71606;SDS011;60641;53.556;9.914;2023-08-20T02:17:29;19.40;;;6.90;;
71606;SDS011;60641;53.556;9.914;2023-08-20T02:19:56;15.40;;;6.10;;
71606;SDS011;60641;53.556;9.914;2023-08-20T02:22:22;15.40;;;6.20;;
71606;SDS011;60641;53.556;9.914;2023-08-20T02:24:49;12.60;;;5.00;;
71606;SDS011;60641;53.556;9.914;2023-08-20T02:27:15;15.00;;;6.40;;
71606;SDS011;60641;53.556;9.914;2023-08-20T02:29:42;13.10;;;6.00;;
71606;SDS011;60641;53.556;9.914;2023-08-20T02:32:08;16.40;;;7.30;;
71606;SDS011;60641;53.556;9.914;2023-08-20T02:34:35;12.70;;;6.30;;
71606;SDS011;60641;53.556;9.914;2023-08-20T02:37:01;13.40;;;6.20;;
71606;SDS011;60641;53.556;9.914;2023-08-20T02:39:28;14.60;;;6.60;;
71606;SDS011;60641;53.556;9.914;2023-08-20T02:41:54;11.60;;;6.10;;
71606;SDS011;60641;53.556;9.914;2023-08-20T02:44:20;11.80;;;5.40;;
71606;SDS011;60641;53.556;9.914;2023-08-20T02:46:47;12.60;;;6.40;;
71606;SDS011;60641;53.556;9.914;2023-08-20T02:49:13;11.30;;;6.00;;
71606;SDS011;60641;53.556;9.914;2023-08-20T02:51:42;11.00;;;5.70;;
71606;SDS011;60641;53.556;9.914;2023-08-20T02:54:09;10.20;;;5.60;;
71606;SDS011;60641;53.556;9.914;2023-08-20T02:56:35;10.00;;;5.90;;
71606;SDS011;60641;53.556;9.914;2023-08-20T02:59:02;10.50;;;5.80;;
71606;SDS011;60641;53.556;9.914;2023-08-20T03:01:28;10.40;;;5.40;;
71606;SDS011;60641;53.556;9.914;2023-08-20T03:03:55;10.60;;;5.50;;
71606;SDS011;60641;53.556;9.914;2023-08-20T03:06:21;10.70;;;5.90;;
71606;SDS011;60641;53.556;9.914;2023-08-20T03:08:48;10.90;;;5.80;;
71606;SDS011;60641;53.556;9.914;2023-08-20T03:11:14;12.30;;;6.10;;
71606;SDS011;60641;53.556;9.914;2023-08-20T03:13:41;11.40;;;6.20;;
71606;SDS011;60641;53.556;9.914;2023-08-20T03:16:07;10.20;;;5.90;;
71606;SDS011;60641;53.556;9.914;2023-08-20T03:18:33;10.10;;;5.60;;
71606;SDS011;60641;53.556;9.914;2023-08-20T03:21:00;10.80;;;6.20;;
71606;SDS011;60641;53.556;9.914;2023-08-20T03:23:26;11.20;;;6.20;;
71606;SDS011;60641;53.556;9.914;2023-08-20T03:25:53;14.30;;;6.70;;
71606;SDS011;60641;53.556;9.914;2023-08-20T03:28:20;11.10;;;6.00;;
71606;SDS011;60641;53.556;9.914;2023-08-20T03:30:47;12.50;;;6.80;;
71606;SDS011;60641;53.556;9.914;2023-08-20T03:33:14;12.10;;;6.60;;
71606;SDS011;60641;53.556;9.914;2023-08-20T03:35:41;13.20;;;7.50;;
71606;SDS011;60641;53.556;9.914;2023-08-20T03:38:07;12.60;;;7.30;;
71606;SDS011;60641;53.556;9.914;2023-08-20T03:40:34;12.60;;;7.30;;
71606;SDS011;60641;53.556;9.914;2023-08-20T03:43:00;12.10;;;6.70;;
71606;SDS011;60641;53.556;9.914;2023-08-20T03:45:27;11.70;;;6.80;;
71606;SDS011;60641;53.556;9.914;2023-08-20T03:47:54;13.30;;;6.60;;
71606;SDS011;60641;53.556;9.914;2023-08-20T03:50:20;11.70;;;6.30;;
71606;SDS011;60641;53.556;9.914;2023-08-20T03:52:47;12.80;;;6.80;;
71606;SDS011;60641;53.556;9.914;2023-08-20T03:55:13;12.10;;;6.70;;
71606;SDS011;60641;53.556;9.914;2023-08-20T03:57:40;11.40;;;6.30;;
71606;SDS011;60641;53.556;9.914;2023-08-20T04:00:06;10.80;;;5.00;;
71606;SDS011;60641;53.556;9.914;2023-08-20T04:02:36;10.00;;;5.60;;
71606;SDS011;60641;53.556;9.914;2023-08-20T04:05:02;10.60;;;5.90;;
71606;SDS011;60641;53.556;9.914;2023-08-20T04:07:29;9.80;;;5.90;;
71606;SDS011;60641;53.556;9.914;2023-08-20T04:09:56;10.30;;;5.80;;
71606;SDS011;60641;53.556;9.914;2023-08-20T04:12:22;9.10;;;5.00;;
71606;SDS011;60641;53.556;9.914;2023-08-20T04:14:48;9.00;;;5.10;;
71606;SDS011;60641;53.556;9.914;2023-08-20T04:17:15;9.40;;;4.50;;
71606;SDS011;60641;53.556;9.914;2023-08-20T04:19:41;10.70;;;5.60;;
71606;SDS011;60641;53.556;9.914;2023-08-20T04:22:08;12.60;;;5.90;;
71606;SDS011;60641;53.556;9.914;2023-08-20T04:24:34;11.60;;;5.80;;
71606;SDS011;60641;53.556;9.914;2023-08-20T04:27:00;13.00;;;5.30;;
71606;SDS011;60641;53.556;9.914;2023-08-20T04:29:27;8.90;;;4.70;;
71606;SDS011;60641;53.556;9.914;2023-08-20T04:31:54;9.20;;;4.70;;
71606;SDS011;60641;53.556;9.914;2023-08-20T04:34:20;8.70;;;4.10;;
71606;SDS011;60641;53.556;9.914;2023-08-20T04:36:46;10.00;;;4.50;;
71606;SDS011;60641;53.556;9.914;2023-08-20T04:39:13;8.60;;;3.70;;
71606;SDS011;60641;53.556;9.914;2023-08-20T04:41:39;9.20;;;3.80;;
71606;SDS011;60641;53.556;9.914;2023-08-20T04:44:06;8.80;;;3.40;;
71606;SDS011;60641;53.556;9.914;2023-08-20T04:46:32;9.70;;;4.10;;
71606;SDS011;60641;53.556;9.914;2023-08-20T04:48:59;10.30;;;3.50;;
71606;SDS011;60641;53.556;9.914;2023-08-20T04:51:25;9.40;;;4.70;;
71606;SDS011;60641;53.556;9.914;2023-08-20T04:53:51;6.80;;;3.00;;
71606;SDS011;60641;53.556;9.914;2023-08-20T04:56:18;6.50;;;2.70;;
71606;SDS011;60641;53.556;9.914;2023-08-20T04:58:45;6.50;;;3.00;;
71606;SDS011;60641;53.556;9.914;2023-08-20T05:01:11;7.40;;;2.70;;
71606;SDS011;60641;53.556;9.914;2023-08-20T05:03:38;5.90;;;2.40;;
71606;SDS011;60641;53.556;9.914;2023-08-20T05:06:04;6.50;;;3.00;;
71606;SDS011;60641;53.556;9.914;2023-08-20T05:08:30;6.30;;;2.90;;
71606;SDS011;60641;53.556;9.914;2023-08-20T05:10:57;6.70;;;2.80;;
71606;SDS011;60641;53.556;9.914;2023-08-20T05:13:23;6.60;;;2.60;;
71606;SDS011;60641;53.556;9.914;2023-08-20T05:15:50;5.10;;;2.40;;
71606;SDS011;60641;53.556;9.914;2023-08-20T05:18:16;5.70;;;2.50;;
71606;SDS011;60641;53.556;9.914;2023-08-20T05:20:43;5.20;;;2.60;;
71606;SDS011;60641;53.556;9.914;2023-08-20T05:23:09;4.70;;;2.20;;
71606;SDS011;60641;53.556;9.914;2023-08-20T05:25:36;4.50;;;2.40;;
71606;SDS011;60641;53.556;9.914;2023-08-20T05:28:02;4.80;;;2.50;;
71606;SDS011;60641;53.556;9.914;2023-08-20T05:30:29;6.50;;;3.00;;
71606;SDS011;60641;53.556;9.914;2023-08-20T05:32:55;6.20;;;2.80;;
71606;SDS011;60641;53.556;9.914;2023-08-20T05:35:21;6.50;;;3.00;;
71606;SDS011;60641;53.556;9.914;2023-08-20T05:37:48;7.20;;;3.20;;
71606;SDS011;60641;53.556;9.914;2023-08-20T05:40:15;8.30;;;4.30;;
71606;SDS011;60641;53.556;9.914;2023-08-20T05:42:42;8.70;;;3.90;;
71606;SDS011;60641;53.556;9.914;2023-08-20T05:45:08;8.70;;;4.40;;
71606;SDS011;60641;53.556;9.914;2023-08-20T05:47:35;9.40;;;4.40;;
71606;SDS011;60641;53.556;9.914;2023-08-20T05:50:02;9.70;;;4.70;;
71606;SDS011;60641;53.556;9.914;2023-08-20T05:52:29;10.50;;;5.10;;
71606;SDS011;60641;53.556;9.914;2023-08-20T05:54:55;10.70;;;5.20;;
71606;SDS011;60641;53.556;9.914;2023-08-20T05:57:22;12.60;;;5.70;;
71606;SDS011;60641;53.556;9.914;2023-08-20T05:59:48;12.20;;;5.70;;
71606;SDS011;60641;53.556;9.914;2023-08-20T06:02:15;15.10;;;8.40;;
71606;SDS011;60641;53.556;9.914;2023-08-20T06:04:44;15.80;;;8.30;;
71606;SDS011;60641;53.556;9.914;2023-08-20T06:07:10;16.60;;;8.00;;
71606;SDS011;60641;53.556;9.914;2023-08-20T06:09:37;21.00;;;11.00;;
71606;SDS011;60641;53.556;9.914;2023-08-20T06:12:03;18.20;;;10.10;;
71606;SDS011;60641;53.556;9.914;2023-08-20T06:14:30;22.30;;;12.80;;
71606;SDS011;60641;53.556;9.914;2023-08-20T06:16:56;15.20;;;8.10;;
71606;SDS011;60641;53.556;9.914;2023-08-20T06:19:23;16.40;;;7.30;;
71606;SDS011;60641;53.556;9.914;2023-08-20T06:21:49;15.20;;;6.70;;
71606;SDS011;60641;53.556;9.914;2023-08-20T06:24:16;15.40;;;7.30;;
71606;SDS011;60641;53.556;9.914;2023-08-20T06:26:42;17.20;;;7.00;;
71606;SDS011;60641;53.556;9.914;2023-08-20T06:29:11;14.60;;;7.10;;
71606;SDS011;60641;53.556;9.914;2023-08-20T06:31:40;17.90;;;7.60;;
71606;SDS011;60641;53.556;9.914;2023-08-20T06:34:07;13.00;;;6.10;;
71606;SDS011;60641;53.556;9.914;2023-08-20T06:36:35;11.60;;;6.10;;
71606;SDS011;60641;53.556;9.914;2023-08-20T06:39:01;12.90;;;5.70;;
71606;SDS011;60641;53.556;9.914;2023-08-20T06:41:28;11.40;;;4.20;;
71606;SDS011;60641;53.556;9.914;2023-08-20T06:43:54;11.10;;;4.50;;
71606;SDS011;60641;53.556;9.914;2023-08-20T06:46:21;8.30;;;3.90;;
71606;SDS011;60641;53.556;9.914;2023-08-20T06:48:47;7.00;;;3.40;;
71606;SDS011;60641;53.556;9.914;2023-08-20T06:51:14;7.40;;;3.60;;
71606;SDS011;60641;53.556;9.914;2023-08-20T06:53:44;7.30;;;4.00;;
71606;SDS011;60641;53.556;9.914;2023-08-20T06:56:11;8.50;;;4.20;;
71606;SDS011;60641;53.556;9.914;2023-08-20T06:58:38;8.80;;;4.10;;
71606;SDS011;60641;53.556;9.914;2023-08-20T07:01:06;8.10;;;3.90;;
71606;SDS011;60641;53.556;9.914;2023-08-20T07:03:34;8.50;;;3.90;;
71606;SDS011;60641;53.556;9.914;2023-08-20T07:06:01;8.90;;;4.90;;
71606;SDS011;60641;53.556;9.914;2023-08-20T07:08:28;10.40;;;4.90;;
71606;SDS011;60641;53.556;9.914;2023-08-20T07:10:54;9.40;;;4.70;;
71606;SDS011;60641;53.556;9.914;2023-08-20T07:13:21;9.80;;;5.10;;
71606;SDS011;60641;53.556;9.914;2023-08-20T07:15:48;10.70;;;4.70;;
71606;SDS011;60641;53.556;9.914;2023-08-20T07:18:15;10.10;;;5.20;;
71606;SDS011;60641;53.556;9.914;2023-08-20T07:20:42;11.30;;;5.00;;
71606;SDS011;60641;53.556;9.914;2023-08-20T07:23:09;11.00;;;4.80;;
71606;SDS011;60641;53.556;9.914;2023-08-20T07:25:37;11.10;;;5.50;;
71606;SDS011;60641;53.556;9.914;2023-08-20T07:28:07;14.30;;;5.40;;
71606;SDS011;60641;53.556;9.914;2023-08-20T07:30:34;11.30;;;4.90;;
71606;SDS011;60641;53.556;9.914;2023-08-20T07:33:02;11.10;;;5.10;;
71606;SDS011;60641;53.556;9.914;2023-08-20T07:35:29;12.70;;;5.30;;
71606;SDS011;60641;53.556;9.914;2023-08-20T07:37:55;9.70;;;4.70;;
71606;SDS011;60641;53.556;9.914;2023-08-20T07:40:22;10.70;;;4.80;;
71606;SDS011;60641;53.556;9.914;2023-08-20T07:42:48;11.00;;;4.30;;
71606;SDS011;60641;53.556;9.914;2023-08-20T07:45:16;11.10;;;4.20;;
71606;SDS011;60641;53.556;9.914;2023-08-20T07:47:43;10.20;;;4.50;;
71606;SDS011;60641;53.556;9.914;2023-08-20T07:50:09;11.10;;;4.40;;
71606;SDS011;60641;53.556;9.914;2023-08-20T07:52:36;12.20;;;4.80;;
71606;SDS011;60641;53.556;9.914;2023-08-20T07:55:02;10.40;;;4.00;;
71606;SDS011;60641;53.556;9.914;2023-08-20T07:57:29;12.60;;;4.30;;
71606;SDS011;60641;53.556;9.914;2023-08-20T07:59:55;10.90;;;3.70;;
71606;SDS011;60641;53.556;9.914;2023-08-20T08:02:21;10.40;;;3.40;;
71606;SDS011;60641;53.556;9.914;2023-08-20T08:04:49;8.90;;;3.50;;
71606;SDS011;60641;53.556;9.914;2023-08-20T08:07:16;7.70;;;3.30;;
71606;SDS011;60641;53.556;9.914;2023-08-20T08:09:43;10.80;;;3.90;;
71606;SDS011;60641;53.556;9.914;2023-08-20T08:12:09;10.30;;;3.50;;
71606;SDS011;60641;53.556;9.914;2023-08-20T08:14:36;7.40;;;3.20;;
71606;SDS011;60641;53.556;9.914;2023-08-20T08:17:02;7.90;;;2.90;;
71606;SDS011;60641;53.556;9.914;2023-08-20T08:19:29;9.80;;;3.20;;
71606;SDS011;60641;53.556;9.914;2023-08-20T08:21:56;8.60;;;3.00;;
71606;SDS011;60641;53.556;9.914;2023-08-20T08:24:22;8.70;;;2.90;;
71606;SDS011;60641;53.556;9.914;2023-08-20T08:26:48;7.10;;;2.80;;
71606;SDS011;60641;53.556;9.914;2023-08-20T08:29:15;8.20;;;2.60;;
71606;SDS011;60641;53.556;9.914;2023-08-20T08:31:41;8.30;;;2.60;;
71606;SDS011;60641;53.556;9.914;2023-08-20T08:34:08;8.50;;;2.60;;
71606;SDS011;60641;53.556;9.914;2023-08-20T08:36:34;6.40;;;2.20;;
71606;SDS011;60641;53.556;9.914;2023-08-20T08:39:01;8.80;;;2.60;;
71606;SDS011;60641;53.556;9.914;2023-08-20T08:41:27;9.00;;;3.10;;
71606;SDS011;60641;53.556;9.914;2023-08-20T08:43:55;9.40;;;2.50;;
71606;SDS011;60641;53.556;9.914;2023-08-20T08:46:22;6.80;;;2.20;;
71606;SDS011;60641;53.556;9.914;2023-08-20T08:48:50;7.40;;;2.20;;
71606;SDS011;60641;53.556;9.914;2023-08-20T08:51:17;7.60;;;2.30;;
71606;SDS011;60641;53.556;9.914;2023-08-20T08:53:44;8.90;;;3.00;;
71606;SDS011;60641;53.556;9.914;2023-08-20T08:56:12;7.60;;;2.40;;
71606;SDS011;60641;53.556;9.914;2023-08-20T08:58:38;7.30;;;2.40;;
71606;SDS011;60641;53.556;9.914;2023-08-20T09:01:05;6.50;;;2.40;;
71606;SDS011;60641;53.556;9.914;2023-08-20T09:03:31;7.50;;;2.40;;
71606;SDS011;60641;53.556;9.914;2023-08-20T09:05:58;8.40;;;2.70;;
71606;SDS011;60641;53.556;9.914;2023-08-20T09:08:30;8.60;;;2.70;;
71606;SDS011;60641;53.556;9.914;2023-08-20T09:10:57;11.70;;;2.60;;
71606;SDS011;60641;53.556;9.914;2023-08-20T09:13:26;7.80;;;2.50;;
71606;SDS011;60641;53.556;9.914;2023-08-20T09:15:58;9.50;;;2.80;;
71606;SDS011;60641;53.556;9.914;2023-08-20T09:18:25;7.10;;;2.10;;
71606;SDS011;60641;53.556;9.914;2023-08-20T09:20:51;8.40;;;2.30;;
71606;SDS011;60641;53.556;9.914;2023-08-20T09:23:17;7.50;;;2.30;;
71606;SDS011;60641;53.556;9.914;2023-08-20T09:25:44;8.20;;;2.70;;
71606;SDS011;60641;53.556;9.914;2023-08-20T09:28:11;8.00;;;2.30;;
71606;SDS011;60641;53.556;9.914;2023-08-20T09:30:37;8.70;;;2.20;;
71606;SDS011;60641;53.556;9.914;2023-08-20T09:33:12;7.50;;;2.30;;
71606;SDS011;60641;53.556;9.914;2023-08-20T09:35:48;6.90;;;2.20;;
71606;SDS011;60641;53.556;9.914;2023-08-20T09:38:16;7.60;;;2.60;;
71606;SDS011;60641;53.556;9.914;2023-08-20T09:40:46;9.00;;;2.80;;
71606;SDS011;60641;53.556;9.914;2023-08-20T09:43:18;7.50;;;2.40;;
71606;SDS011;60641;53.556;9.914;2023-08-20T09:45:46;8.80;;;2.30;;
71606;SDS011;60641;53.556;9.914;2023-08-20T09:48:15;9.00;;;2.40;;
71606;SDS011;60641;53.556;9.914;2023-08-20T09:50:47;8.20;;;2.20;;
71606;SDS011;60641;53.556;9.914;2023-08-20T09:53:21;6.50;;;2.10;;
71606;SDS011;60641;53.556;9.914;2023-08-20T09:55:52;10.10;;;2.20;;
71606;SDS011;60641;53.556;9.914;2023-08-20T09:58:20;7.80;;;2.10;;
71606;SDS011;60641;53.556;9.914;2023-08-20T10:00:51;8.30;;;2.10;;
71606;SDS011;60641;53.556;9.914;2023-08-20T10:03:18;6.80;;;2.00;;
71606;SDS011;60641;53.556;9.914;2023-08-20T10:05:46;8.60;;;2.40;;
71606;SDS011;60641;53.556;9.914;2023-08-20T10:08:13;7.90;;;2.00;;
71606;SDS011;60641;53.556;9.914;2023-08-20T10:10:41;8.80;;;2.00;;
71606;SDS011;60641;53.556;9.914;2023-08-20T10:13:07;7.30;;;2.10;;
71606;SDS011;60641;53.556;9.914;2023-08-20T10:15:34;9.70;;;2.20;;
71606;SDS011;60641;53.556;9.914;2023-08-20T10:18:02;7.70;;;2.20;;
71606;SDS011;60641;53.556;9.914;2023-08-20T10:20:30;9.50;;;2.30;;
71606;SDS011;60641;53.556;9.914;2023-08-20T10:23:02;9.70;;;2.10;;
71606;SDS011;60641;53.556;9.914;2023-08-20T10:25:29;8.00;;;2.20;;
71606;SDS011;60641;53.556;9.914;2023-08-20T10:28:12;9.90;;;2.30;;
71606;SDS011;60641;53.556;9.914;2023-08-20T10:33:30;10.00;;;1.90;;
71606;SDS011;60641;53.556;9.914;2023-08-20T10:35:56;12.60;;;2.50;;
71606;SDS011;60641;53.556;9.914;2023-08-20T10:38:23;8.10;;;2.20;;
71606;SDS011;60641;53.556;9.914;2023-08-20T10:46:08;13.60;;;2.30;;
71606;SDS011;60641;53.556;9.914;2023-08-20T10:48:41;8.60;;;1.70;;
71606;SDS011;60641;53.556;9.914;2023-08-20T11:01:51;13.10;;;2.10;;
71606;SDS011;60641;53.556;9.914;2023-08-20T11:04:19;7.10;;;2.00;;
71606;SDS011;60641;53.556;9.914;2023-08-20T11:06:49;10.60;;;2.30;;
71606;SDS011;60641;53.556;9.914;2023-08-20T11:09:16;8.00;;;1.90;;
71606;SDS011;60641;53.556;9.914;2023-08-20T11:11:43;9.60;;;2.40;;
71606;SDS011;60641;53.556;9.914;2023-08-20T11:14:13;7.60;;;1.90;;
71606;SDS011;60641;53.556;9.914;2023-08-20T11:16:44;7.50;;;1.90;;
71606;SDS011;60641;53.556;9.914;2023-08-20T11:19:11;7.70;;;2.00;;
71606;SDS011;60641;53.556;9.914;2023-08-20T11:21:39;9.00;;;2.20;;
71606;SDS011;60641;53.556;9.914;2023-08-20T11:24:06;10.20;;;2.40;;
71606;SDS011;60641;53.556;9.914;2023-08-20T11:26:34;8.10;;;1.90;;
71606;SDS011;60641;53.556;9.914;2023-08-20T11:29:11;9.70;;;2.20;;
71606;SDS011;60641;53.556;9.914;2023-08-20T11:31:39;8.10;;;2.20;;
71606;SDS011;60641;53.556;9.914;2023-08-20T11:34:06;7.60;;;1.90;;
71606;SDS011;60641;53.556;9.914;2023-08-20T11:36:32;8.70;;;2.20;;
71606;SDS011;60641;53.556;9.914;2023-08-20T11:38:59;8.40;;;1.80;;
71606;SDS011;60641;53.556;9.914;2023-08-20T11:41:25;6.70;;;1.70;;
71606;SDS011;60641;53.556;9.914;2023-08-20T11:43:52;8.10;;;2.00;;
71606;SDS011;60641;53.556;9.914;2023-08-20T11:46:20;8.20;;;2.00;;
71606;SDS011;60641;53.556;9.914;2023-08-20T11:49:07;6.60;;;1.90;;
71606;SDS011;60641;53.556;9.914;2023-08-20T11:51:35;7.70;;;2.10;;
71606;SDS011;60641;53.556;9.914;2023-08-20T11:54:16;10.00;;;2.30;;
71606;SDS011;60641;53.556;9.914;2023-08-20T11:56:47;7.70;;;1.90;;
71606;SDS011;60641;53.556;9.914;2023-08-20T11:59:16;7.40;;;2.10;;
71606;SDS011;60641;53.556;9.914;2023-08-20T12:01:49;6.90;;;1.80;;
71606;SDS011;60641;53.556;9.914;2023-08-20T12:04:16;9.80;;;2.20;;
71606;SDS011;60641;53.556;9.914;2023-08-20T12:06:43;8.70;;;2.30;;
71606;SDS011;60641;53.556;9.914;2023-08-20T12:09:22;10.80;;;2.60;;
71606;SDS011;60641;53.556;9.914;2023-08-20T12:11:50;8.50;;;2.30;;
71606;SDS011;60641;53.556;9.914;2023-08-20T12:14:17;7.30;;;1.80;;
71606;SDS011;60641;53.556;9.914;2023-08-20T12:16:44;9.30;;;2.30;;
71606;SDS011;60641;53.556;9.914;2023-08-20T12:19:11;9.00;;;2.00;;
71606;SDS011;60641;53.556;9.914;2023-08-20T12:21:38;7.40;;;2.20;;
71606;SDS011;60641;53.556;9.914;2023-08-20T12:24:06;6.10;;;2.00;;
71606;SDS011;60641;53.556;9.914;2023-08-20T12:26:33;8.00;;;2.10;;
71606;SDS011;60641;53.556;9.914;2023-08-20T12:29:00;7.70;;;1.90;;
71606;SDS011;60641;53.556;9.914;2023-08-20T12:31:26;7.80;;;1.90;;
71606;SDS011;60641;53.556;9.914;2023-08-20T12:33:53;7.50;;;2.00;;
71606;SDS011;60641;53.556;9.914;2023-08-20T12:36:20;7.90;;;2.10;;
71606;SDS011;60641;53.556;9.914;2023-08-20T12:38:47;5.80;;;1.80;;
71606;SDS011;60641;53.556;9.914;2023-08-20T12:41:14;7.00;;;1.90;;
71606;SDS011;60641;53.556;9.914;2023-08-20T12:43:41;8.60;;;2.00;;
71606;SDS011;60641;53.556;9.914;2023-08-20T12:46:07;7.00;;;2.30;;
71606;SDS011;60641;53.556;9.914;2023-08-20T12:48:34;6.00;;;2.00;;
71606;SDS011;60641;53.556;9.914;2023-08-20T12:51:00;6.60;;;2.00;;
71606;SDS011;60641;53.556;9.914;2023-08-20T12:53:27;7.70;;;2.10;;
71606;SDS011;60641;53.556;9.914;2023-08-20T12:55:53;10.20;;;2.10;;
71606;SDS011;60641;53.556;9.914;2023-08-20T12:58:20;5.50;;;1.70;;
71606;SDS011;60641;53.556;9.914;2023-08-20T13:00:46;6.90;;;1.90;;
71606;SDS011;60641;53.556;9.914;2023-08-20T13:03:13;8.10;;;1.60;;
71606;SDS011;60641;53.556;9.914;2023-08-20T13:05:40;9.30;;;2.10;;
71606;SDS011;60641;53.556;9.914;2023-08-20T13:08:07;7.60;;;2.50;;
71606;SDS011;60641;53.556;9.914;2023-08-20T13:10:34;7.10;;;2.10;;
71606;SDS011;60641;53.556;9.914;2023-08-20T13:13:02;6.90;;;1.70;;
71606;SDS011;60641;53.556;9.914;2023-08-20T13:15:30;6.40;;;2.00;;
71606;SDS011;60641;53.556;9.914;2023-08-20T13:17:57;6.30;;;1.80;;
71606;SDS011;60641;53.556;9.914;2023-08-20T13:20:24;11.30;;;2.20;;
71606;SDS011;60641;53.556;9.914;2023-08-20T13:22:51;6.30;;;2.00;;
71606;SDS011;60641;53.556;9.914;2023-08-20T13:25:18;7.90;;;2.20;;
71606;SDS011;60641;53.556;9.914;2023-08-20T13:27:47;5.70;;;1.90;;
71606;SDS011;60641;53.556;9.914;2023-08-20T13:30:14;8.90;;;2.40;;
71606;SDS011;60641;53.556;9.914;2023-08-20T13:32:40;6.80;;;1.90;;
71606;SDS011;60641;53.556;9.914;2023-08-20T13:35:07;9.40;;;2.10;;
71606;SDS011;60641;53.556;9.914;2023-08-20T13:37:36;8.40;;;2.50;;
71606;SDS011;60641;53.556;9.914;2023-08-20T13:40:02;7.20;;;2.10;;
71606;SDS011;60641;53.556;9.914;2023-08-20T13:42:33;9.40;;;1.70;;
71606;SDS011;60641;53.556;9.914;2023-08-20T13:45:00;5.80;;;1.90;;
71606;SDS011;60641;53.556;9.914;2023-08-20T13:47:26;8.40;;;2.10;;
71606;SDS011;60641;53.556;9.914;2023-08-20T13:49:53;9.40;;;2.00;;
71606;SDS011;60641;53.556;9.914;2023-08-20T13:52:22;5.50;;;1.60;;
71606;SDS011;60641;53.556;9.914;2023-08-20T13:54:49;7.30;;;2.00;;
71606;SDS011;60641;53.556;9.914;2023-08-20T13:57:28;7.10;;;1.90;;
71606;SDS011;60641;53.556;9.914;2023-08-20T13:59:54;6.50;;;2.10;;
71606;SDS011;60641;53.556;9.914;2023-08-20T14:02:21;7.40;;;2.00;;
71606;SDS011;60641;53.556;9.914;2023-08-20T14:04:57;7.10;;;1.80;;
71606;SDS011;60641;53.556;9.914;2023-08-20T14:07:27;6.30;;;1.90;;
71606;SDS011;60641;53.556;9.914;2023-08-20T14:09:59;7.40;;;2.10;;
71606;SDS011;60641;53.556;9.914;2023-08-20T14:12:29;10.30;;;2.00;;
71606;SDS011;60641;53.556;9.914;2023-08-20T14:14:56;6.50;;;2.10;;
71606;SDS011;60641;53.556;9.914;2023-08-20T14:17:24;9.40;;;2.10;;
71606;SDS011;60641;53.556;9.914;2023-08-20T14:19:51;5.80;;;1.70;;
71606;SDS011;60641;53.556;9.914;2023-08-20T14:22:17;6.50;;;1.70;;
71606;SDS011;60641;53.556;9.914;2023-08-20T14:24:44;6.00;;;1.70;;
71606;SDS011;60641;53.556;9.914;2023-08-20T14:27:10;7.10;;;1.90;;
71606;SDS011;60641;53.556;9.914;2023-08-20T14:29:37;6.00;;;1.80;;
71606;SDS011;60641;53.556;9.914;2023-08-20T14:32:04;8.20;;;2.00;;
71606;SDS011;60641;53.556;9.914;2023-08-20T14:34:30;7.10;;;1.90;;
71606;SDS011;60641;53.556;9.914;2023-08-20T14:36:57;5.90;;;1.70;;
71606;SDS011;60641;53.556;9.914;2023-08-20T14:39:23;6.70;;;1.80;;
71606;SDS011;60641;53.556;9.914;2023-08-20T14:41:50;7.10;;;1.80;;
71606;SDS011;60641;53.556;9.914;2023-08-20T14:44:16;6.20;;;1.80;;
71606;SDS011;60641;53.556;9.914;2023-08-20T14:46:43;7.70;;;1.90;;
71606;SDS011;60641;53.556;9.914;2023-08-20T14:49:09;7.90;;;2.00;;
71606;SDS011;60641;53.556;9.914;2023-08-20T14:51:36;7.90;;;2.10;;
71606;SDS011;60641;53.556;9.914;2023-08-20T14:54:02;11.20;;;2.00;;
71606;SDS011;60641;53.556;9.914;2023-08-20T14:56:29;8.90;;;1.70;;
71606;SDS011;60641;53.556;9.914;2023-08-20T14:58:56;6.00;;;1.70;;
71606;SDS011;60641;53.556;9.914;2023-08-20T15:01:22;5.30;;;1.60;;
71606;SDS011;60641;53.556;9.914;2023-08-20T15:03:49;8.40;;;1.80;;
71606;SDS011;60641;53.556;9.914;2023-08-20T15:06:15;7.20;;;1.90;;
71606;SDS011;60641;53.556;9.914;2023-08-20T15:08:42;5.30;;;1.60;;